createdAt,value
2022-12-27T00:01:48.210Z,4.20
2022-12-27T00:04:16.931Z,4.20
2022-12-27T00:06:45.472Z,4.10
2022-12-27T00:09:14.007Z,4.10
2022-12-27T00:11:43.648Z,4.00
2022-12-27T00:14:13.265Z,4.00
2022-12-27T00:16:41.786Z,4.10
2022-12-27T00:19:10.303Z,4.00
2022-12-27T00:21:38.633Z,4.10
2022-12-27T00:24:07.529Z,4.10
2022-12-27T00:26:36.736Z,4.20
2022-12-27T00:29:07.087Z,4.10
2022-12-27T00:31:35.904Z,4.20
2022-12-27T00:34:07.859Z,4.10
2022-12-27T00:36:37.224Z,4.10
2022-12-27T00:39:05.955Z,4.00
2022-12-27T00:41:34.198Z,4.00
2022-12-27T00:44:02.598Z,4.00
2022-12-27T00:46:32.277Z,4.00
2022-12-27T00:49:00.588Z,4.00
2022-12-27T00:51:29.117Z,3.90
2022-12-27T00:53:58.100Z,3.90
2022-12-27T00:56:28.311Z,3.90
2022-12-27T00:58:57.318Z,3.90
2022-12-27T01:01:27.396Z,3.90
2022-12-27T01:03:58.637Z,3.90
2022-12-27T01:06:30.229Z,3.90
2022-12-27T01:08:59.547Z,3.90
2022-12-27T01:11:28.854Z,3.90
2022-12-27T01:13:57.927Z,3.90
2022-12-27T01:16:28.054Z,3.90
2022-12-27T01:18:59.146Z,3.90
2022-12-27T01:21:31.160Z,3.90
2022-12-27T01:23:59.807Z,3.90
2022-12-27T01:26:31.610Z,3.90
2022-12-27T01:28:59.872Z,3.90
2022-12-27T01:31:29.683Z,3.80
2022-12-27T01:34:01.245Z,3.70
2022-12-27T01:36:31.543Z,3.70
2022-12-27T01:39:01.581Z,3.70
2022-12-27T01:41:50.903Z,3.70
2022-12-27T01:44:49.833Z,3.70
2022-12-27T01:47:26.181Z,3.70
2022-12-27T01:50:04.308Z,3.70
2022-12-27T01:52:38.815Z,3.60
2022-12-27T01:55:16.638Z,3.60
2022-12-27T01:57:45.528Z,3.60
2022-12-27T02:00:14.578Z,3.60
2022-12-27T02:02:43.336Z,3.70
2022-12-27T02:05:16.249Z,3.70
2022-12-27T02:07:54.841Z,3.70
2022-12-27T02:10:23.261Z,3.60
2022-12-27T02:12:53.563Z,3.60
2022-12-27T02:15:21.837Z,3.50
2022-12-27T02:17:50.479Z,3.50
2022-12-27T02:20:22.801Z,3.60
2022-12-27T02:23:57.564Z,3.50
2022-12-27T02:26:47.480Z,3.50
2022-12-27T02:29:41.453Z,3.50
2022-12-27T02:32:14.326Z,3.50
2022-12-27T02:34:52.028Z,3.50
2022-12-27T02:37:22.571Z,3.50
2022-12-27T02:39:52.620Z,3.50
2022-12-27T02:42:38.819Z,3.50
2022-12-27T02:45:36.745Z,3.50
2022-12-27T02:48:31.773Z,3.60
2022-12-27T02:51:26.496Z,3.50
2022-12-27T02:54:10.731Z,3.50
2022-12-27T02:57:06.858Z,3.50
2022-12-27T03:00:06.679Z,3.50
2022-12-27T03:03:06.113Z,3.50
2022-12-27T03:06:09.252Z,3.50
2022-12-27T03:08:48.906Z,3.60
2022-12-27T03:11:36.144Z,3.50
2022-12-27T03:14:29.580Z,3.50
2022-12-27T03:17:03.313Z,3.60
2022-12-27T03:19:56.922Z,3.60
2022-12-27T03:22:45.361Z,3.50
2022-12-27T03:25:31.236Z,3.50
2022-12-27T03:28:21.505Z,3.50
2022-12-27T03:31:28.881Z,3.50
2022-12-27T03:34:20.945Z,3.40
2022-12-27T03:37:09.295Z,3.30
2022-12-27T03:39:41.461Z,3.40
2022-12-27T03:42:34.269Z,3.40
2022-12-27T03:45:02.656Z,3.30
2022-12-27T03:47:36.895Z,3.40
2022-12-27T03:50:09.940Z,3.30
2022-12-27T03:52:44.420Z,3.30
2022-12-27T03:55:13.350Z,3.30
2022-12-27T03:57:41.937Z,3.20
2022-12-27T04:00:11.980Z,3.30
2022-12-27T04:02:41.034Z,3.20
2022-12-27T04:05:10.483Z,3.20
2022-12-27T04:07:54.299Z,3.30
2022-12-27T04:10:40.396Z,3.30
2022-12-27T04:13:26.291Z,3.20
2022-12-27T04:16:12.340Z,3.20
2022-12-27T04:18:58.816Z,3.20
2022-12-27T04:21:44.599Z,3.10
2022-12-27T04:24:33.563Z,3.10
2022-12-27T04:27:19.115Z,3.10
2022-12-27T04:30:05.455Z,3.10
2022-12-27T04:32:51.347Z,3.10
2022-12-27T04:35:20.130Z,3.10
2022-12-27T04:37:48.365Z,3.10
2022-12-27T04:40:35.636Z,3.00
2022-12-27T04:43:21.053Z,3.00
2022-12-27T04:46:07.363Z,2.90
2022-12-27T04:48:53.187Z,3.00
2022-12-27T04:51:38.546Z,3.00
2022-12-27T04:54:33.657Z,3.00
2022-12-27T04:57:03.361Z,3.00
2022-12-27T04:59:49.554Z,3.00
2022-12-27T05:02:19.896Z,3.00
2022-12-27T05:04:49.743Z,3.10
2022-12-27T05:07:41.421Z,3.10
2022-12-27T05:10:27.957Z,3.10
2022-12-27T05:13:17.517Z,3.10
2022-12-27T05:15:45.945Z,3.00
2022-12-27T05:18:14.146Z,3.10
2022-12-27T05:20:42.550Z,3.10
2022-12-27T05:23:29.865Z,3.10
2022-12-27T05:25:58.804Z,3.10
2022-12-27T05:28:28.659Z,3.10
2022-12-27T05:31:02.871Z,3.10
2022-12-27T05:33:35.009Z,3.00
2022-12-27T05:36:03.541Z,3.10
2022-12-27T05:38:31.763Z,3.10
2022-12-27T05:41:00.871Z,3.10
2022-12-27T05:43:31.470Z,3.20
2022-12-27T05:46:05.067Z,3.20
2022-12-27T05:48:33.655Z,3.10
2022-12-27T05:51:06.942Z,3.10
2022-12-27T05:53:35.463Z,3.10
2022-12-27T05:56:04.270Z,3.10
2022-12-27T05:58:34.391Z,3.10
2022-12-27T06:01:03.471Z,3.10
2022-12-27T06:03:32.138Z,3.10
2022-12-27T06:06:04.425Z,3.10
2022-12-27T06:08:33.169Z,3.10
2022-12-27T06:11:07.358Z,3.10
2022-12-27T06:13:37.734Z,3.10
2022-12-27T06:16:08.781Z,3.10
2022-12-27T06:18:38.762Z,3.10
2022-12-27T06:21:11.230Z,3.10
2022-12-27T06:23:41.204Z,3.10
2022-12-27T06:26:12.278Z,3.10
2022-12-27T06:28:41.849Z,3.10
2022-12-27T06:31:10.745Z,3.10
2022-12-27T06:33:39.395Z,3.00
2022-12-27T06:36:08.516Z,3.10
2022-12-27T06:38:37.014Z,3.10
2022-12-27T06:41:07.217Z,3.10
2022-12-27T06:43:36.267Z,3.10
2022-12-27T06:46:10.284Z,3.10
2022-12-27T06:48:42.140Z,3.10
2022-12-27T06:51:12.855Z,3.10
2022-12-27T06:53:41.794Z,3.10
2022-12-27T06:56:17.002Z,3.20
2022-12-27T06:58:45.671Z,3.20
2022-12-27T07:01:17.561Z,3.20
2022-12-27T07:03:50.142Z,3.20
2022-12-27T07:06:19.466Z,3.20
2022-12-27T07:08:48.366Z,3.20
2022-12-27T07:11:17.678Z,3.20
2022-12-27T07:13:48.928Z,3.20
2022-12-27T07:16:22.039Z,3.10
2022-12-27T07:18:51.022Z,3.10
2022-12-27T07:21:21.817Z,3.10
2022-12-27T07:23:50.656Z,3.10
2022-12-27T07:26:20.839Z,3.10
2022-12-27T07:28:49.762Z,3.10
2022-12-27T07:31:21.392Z,3.10
2022-12-27T07:33:49.751Z,3.10
2022-12-27T07:36:21.619Z,3.20
2022-12-27T07:38:50.229Z,3.10
2022-12-27T07:41:19.235Z,3.20
2022-12-27T07:43:47.531Z,3.20
2022-12-27T07:46:17.903Z,3.20
2022-12-27T07:48:49.160Z,3.20
2022-12-27T07:51:18.402Z,3.30
2022-12-27T07:53:49.524Z,3.30
2022-12-27T07:56:25.444Z,3.30
2022-12-27T07:58:55.731Z,3.30
2022-12-27T08:01:26.065Z,3.30
2022-12-27T08:03:56.301Z,3.20
2022-12-27T08:06:27.318Z,3.30
2022-12-27T08:08:56.878Z,3.30
2022-12-27T08:11:26.604Z,3.40
2022-12-27T08:13:55.309Z,3.40
2022-12-27T08:16:26.200Z,3.40
2022-12-27T08:18:56.024Z,3.50
2022-12-27T08:21:24.747Z,3.60
2022-12-27T08:23:53.300Z,3.70
2022-12-27T08:26:21.782Z,3.70
2022-12-27T08:28:49.989Z,3.80
2022-12-27T08:31:18.231Z,3.90
2022-12-27T08:33:46.458Z,3.90
2022-12-27T08:36:45.197Z,4.00
2022-12-27T08:39:04.514Z,4.10
2022-12-27T08:41:32.700Z,4.20
2022-12-27T08:44:00.947Z,4.20
2022-12-27T08:46:29.300Z,4.20
2022-12-27T08:48:57.560Z,4.20
2022-12-27T08:51:35.975Z,4.10
2022-12-27T08:54:08.767Z,4.10
2022-12-27T08:56:37.297Z,4.10
2022-12-27T08:59:05.641Z,4.20
2022-12-27T09:01:34.300Z,4.10
2022-12-27T09:04:02.564Z,4.10
2022-12-27T09:06:32.747Z,4.20
2022-12-27T09:09:01.520Z,4.30
2022-12-27T09:11:32.045Z,4.40
2022-12-27T09:14:03.595Z,4.40
2022-12-27T09:16:34.145Z,4.50
2022-12-27T09:19:02.852Z,4.70
2022-12-27T09:21:34.955Z,4.70
2022-12-27T09:24:03.774Z,4.80
2022-12-27T09:26:32.440Z,4.80
2022-12-27T09:29:01.629Z,4.80
2022-12-27T09:31:30.387Z,4.80
2022-12-27T09:33:59.515Z,4.80
2022-12-27T09:36:29.715Z,4.80
2022-12-27T09:39:00.340Z,5.00
2022-12-27T09:44:42.203Z,5.40
2022-12-27T09:47:15.919Z,5.60
2022-12-27T09:49:47.594Z,5.80
2022-12-27T09:52:20.058Z,5.70
2022-12-27T09:55:04.786Z,5.70
2022-12-27T09:57:38.268Z,5.70
2022-12-27T10:00:14.733Z,6.20
2022-12-27T10:02:45.122Z,6.60
2022-12-27T10:05:22.634Z,6.70
2022-12-27T10:08:03.535Z,6.60
2022-12-27T10:10:43.510Z,6.40
2022-12-27T10:13:25.450Z,6.30
2022-12-27T10:16:02.176Z,6.30
2022-12-27T10:18:39.915Z,6.30
2022-12-27T10:21:20.076Z,6.20
2022-12-27T10:23:54.201Z,6.20
2022-12-27T10:26:24.221Z,6.20
2022-12-27T10:28:57.384Z,6.20
2022-12-27T10:31:27.153Z,6.10
2022-12-27T10:33:55.966Z,6.10
2022-12-27T10:36:27.052Z,6.10
2022-12-27T10:38:58.373Z,6.10
2022-12-27T10:41:40.583Z,6.20
2022-12-27T10:44:11.977Z,6.30
2022-12-27T10:46:42.775Z,6.50
2022-12-27T10:49:24.341Z,6.70
2022-12-27T10:51:53.839Z,7.10
2022-12-27T10:54:25.044Z,7.30
2022-12-27T10:56:56.377Z,7.50
2022-12-27T10:59:26.128Z,7.70
2022-12-27T11:02:17.465Z,7.90
2022-12-27T11:05:00.486Z,7.80
2022-12-27T11:07:35.941Z,8.00
2022-12-27T11:10:15.741Z,8.30
2022-12-27T11:13:01.878Z,8.60
2022-12-27T11:15:34.762Z,8.80
2022-12-27T11:18:10.388Z,8.70
2022-12-27T11:20:40.654Z,8.50
2022-12-27T11:23:14.816Z,8.20
2022-12-27T11:25:56.231Z,8.00
2022-12-27T11:28:33.384Z,7.80
2022-12-27T11:31:04.895Z,7.70
2022-12-27T11:33:39.348Z,7.70
2022-12-27T11:36:09.856Z,7.60
2022-12-27T11:38:40.956Z,7.50
2022-12-27T11:41:13.708Z,7.50
2022-12-27T11:43:48.967Z,7.50
2022-12-27T11:46:26.187Z,7.50
2022-12-27T11:48:57.210Z,7.60
2022-12-27T11:51:44.852Z,7.50
2022-12-27T11:54:35.482Z,7.50
2022-12-27T11:57:18.998Z,7.50
2022-12-27T12:00:00.907Z,7.40
2022-12-27T12:02:35.043Z,7.40
2022-12-27T12:05:46.889Z,7.40
2022-12-27T12:08:34.689Z,7.40
2022-12-27T12:11:14.834Z,7.40
2022-12-27T12:14:03.975Z,7.50
2022-12-27T12:16:56.428Z,7.50
2022-12-27T12:19:42.481Z,7.50
2022-12-27T12:22:36.971Z,7.60
2022-12-27T12:25:33.024Z,7.60
2022-12-27T12:28:56.469Z,7.70
2022-12-27T12:31:27.690Z,7.70
2022-12-27T12:34:14.855Z,7.70
2022-12-27T12:36:56.050Z,7.80
2022-12-27T12:39:34.270Z,7.80
2022-12-27T12:42:15.910Z,7.80
2022-12-27T12:45:11.988Z,7.80
2022-12-27T12:48:03.779Z,7.90
2022-12-27T12:50:56.132Z,8.00
2022-12-27T12:53:37.708Z,8.00
2022-12-27T12:56:22.325Z,8.00
2022-12-27T12:58:58.368Z,8.10
2022-12-27T13:01:51.120Z,8.10
2022-12-27T13:04:38.799Z,8.20
2022-12-27T13:07:37.674Z,8.20
2022-12-27T13:10:58.035Z,8.20
2022-12-27T13:13:43.362Z,8.20
2022-12-27T13:16:21.541Z,8.20
2022-12-27T13:18:58.983Z,8.20
2022-12-27T13:21:43.151Z,8.30
2022-12-27T13:24:29.545Z,8.30
2022-12-27T13:27:08.163Z,8.40
2022-12-27T13:29:47.563Z,8.60
2022-12-27T13:32:26.721Z,8.70
2022-12-27T13:35:04.567Z,8.80
2022-12-27T13:37:46.129Z,8.80
2022-12-27T13:40:46.661Z,8.80
2022-12-27T13:43:37.878Z,8.70
2022-12-27T13:46:21.554Z,8.70
2022-12-27T13:49:02.774Z,8.60
2022-12-27T13:51:52.775Z,8.50
2022-12-27T13:54:59.443Z,8.40
2022-12-27T13:57:49.483Z,8.30
2022-12-27T14:00:20.097Z,8.20
2022-12-27T14:03:27.538Z,8.10
2022-12-27T14:06:19.240Z,8.00
2022-12-27T14:09:18.181Z,8.00
2022-12-27T14:12:03.789Z,8.00
2022-12-27T14:14:39.162Z,8.00
2022-12-27T14:17:23.227Z,8.00
2022-12-27T14:20:21.331Z,8.10
2022-12-27T14:23:26.107Z,8.20
2022-12-27T14:26:42.076Z,8.30
2022-12-27T14:29:36.695Z,8.40
2022-12-27T14:32:41.269Z,8.50
2022-12-27T14:35:46.785Z,8.50
2022-12-27T14:38:48.084Z,8.50
2022-12-27T14:41:57.980Z,8.40
2022-12-27T14:45:11.492Z,8.40
2022-12-27T14:48:11.903Z,8.40
2022-12-27T14:51:41.574Z,8.40
2022-12-27T14:54:51.168Z,8.30
2022-12-27T14:57:33.756Z,8.20
2022-12-27T15:00:13.294Z,8.10
2022-12-27T15:03:11.191Z,8.10
2022-12-27T15:05:52.519Z,8.00
2022-12-27T15:08:33.152Z,8.00
2022-12-27T15:11:30.395Z,7.90
2022-12-27T15:14:11.256Z,7.90
2022-12-27T15:16:49.850Z,7.80
2022-12-27T15:19:45.314Z,7.80
2022-12-27T15:22:23.170Z,7.70
2022-12-27T15:25:00.584Z,7.70
2022-12-27T15:27:34.932Z,7.60
2022-12-27T15:30:12.301Z,7.60
2022-12-27T15:32:53.240Z,7.50
2022-12-27T15:35:50.757Z,7.50
2022-12-27T15:38:39.549Z,7.40
2022-12-27T15:41:32.641Z,7.40
2022-12-27T15:44:35.810Z,7.40
2022-12-27T15:47:33.034Z,7.40
2022-12-27T15:50:18.899Z,7.30
2022-12-27T15:53:04.221Z,7.30
2022-12-27T15:56:00.454Z,7.20
2022-12-27T15:58:29.542Z,7.20
2022-12-27T16:01:29.170Z,7.20
2022-12-27T16:03:59.669Z,7.20
2022-12-27T16:06:51.911Z,7.10
2022-12-27T16:09:35.596Z,7.10
2022-12-27T16:12:10.489Z,7.10
2022-12-27T16:14:40.585Z,7.00
2022-12-27T16:17:31.887Z,7.00
2022-12-27T16:20:16.679Z,7.00
2022-12-27T16:22:55.369Z,7.00
2022-12-27T16:25:30.958Z,7.00
2022-12-27T16:28:06.462Z,6.90
2022-12-27T16:30:37.050Z,6.90
2022-12-27T16:33:05.742Z,6.90
2022-12-27T16:35:34.580Z,6.90
2022-12-27T16:38:04.526Z,7.00
2022-12-27T16:40:42.172Z,7.00
2022-12-27T16:43:47.275Z,6.90
2022-12-27T16:46:43.125Z,6.90
2022-12-27T16:49:40.193Z,6.90
2022-12-27T16:52:31.167Z,7.00
2022-12-27T16:55:17.953Z,7.00
2022-12-27T16:57:48.740Z,7.00
2022-12-27T17:00:41.010Z,6.90
2022-12-27T17:03:31.625Z,6.90
2022-12-27T17:09:33.761Z,6.80
2022-12-27T17:12:13.635Z,6.90
2022-12-27T17:14:45.096Z,6.80
2022-12-27T17:17:21.095Z,6.80
2022-12-27T17:19:58.520Z,6.80
2022-12-27T17:22:34.192Z,6.80
2022-12-27T17:25:16.099Z,6.70
2022-12-27T17:28:06.516Z,6.70
2022-12-27T17:30:47.926Z,6.70
2022-12-27T17:33:34.168Z,6.60
2022-12-27T17:36:30.333Z,6.60
2022-12-27T17:39:18.986Z,6.60
2022-12-27T17:42:13.366Z,6.60
2022-12-27T17:44:57.308Z,6.60
2022-12-27T17:47:42.265Z,6.60
2022-12-27T17:50:18.873Z,6.70
2022-12-27T17:53:22.023Z,6.60
2022-12-27T17:56:19.319Z,6.60
2022-12-27T17:58:47.719Z,6.50
2022-12-27T18:01:16.400Z,6.50
2022-12-27T18:03:47.736Z,6.50
2022-12-27T18:06:21.463Z,6.50
2022-12-27T18:08:50.684Z,6.50
2022-12-27T18:11:23.470Z,6.50
2022-12-27T18:13:59.267Z,6.40
2022-12-27T18:16:36.591Z,6.40
2022-12-27T18:19:05.408Z,6.40
2022-12-27T18:21:35.112Z,6.30
2022-12-27T18:24:03.299Z,6.30
2022-12-27T18:26:41.005Z,6.20
2022-12-27T18:29:12.746Z,6.20
2022-12-27T18:31:49.806Z,6.20
2022-12-27T18:34:24.319Z,6.20
2022-12-27T18:37:00.208Z,6.20
2022-12-27T18:39:32.299Z,6.10
2022-12-27T18:42:03.475Z,6.10
2022-12-27T18:44:34.002Z,6.10
2022-12-27T18:47:04.533Z,6.10
2022-12-27T18:49:35.447Z,6.00
2022-12-27T18:52:13.882Z,6.10
2022-12-27T18:54:42.886Z,6.00
2022-12-27T18:57:38.099Z,6.00
2022-12-27T19:00:18.062Z,6.00
2022-12-27T19:02:48.781Z,5.90
2022-12-27T19:05:29.623Z,5.90
2022-12-27T19:08:09.890Z,5.90
2022-12-27T19:10:41.428Z,5.90
2022-12-27T19:13:23.039Z,5.90
2022-12-27T19:15:52.131Z,6.00
2022-12-27T19:18:27.704Z,6.00
2022-12-27T19:20:58.432Z,6.10
2022-12-27T19:23:34.320Z,6.10
2022-12-27T19:26:06.344Z,6.10
2022-12-27T19:28:36.387Z,6.20
2022-12-27T19:31:18.181Z,6.20
2022-12-27T19:33:50.896Z,6.20
2022-12-27T19:36:23.520Z,6.20
2022-12-27T19:38:53.593Z,6.20
2022-12-27T19:41:21.966Z,6.20
2022-12-27T19:43:50.534Z,6.20
2022-12-27T19:46:19.833Z,6.20
2022-12-27T19:49:23.168Z,6.20
2022-12-27T19:51:37.598Z,6.20
2022-12-27T19:54:13.324Z,6.20
2022-12-27T19:56:41.808Z,6.20
2022-12-27T19:59:15.969Z,6.20
2022-12-27T20:01:45.608Z,6.30
2022-12-27T20:04:13.996Z,6.30
2022-12-27T20:06:43.000Z,6.30
2022-12-27T20:09:16.279Z,6.30
2022-12-27T20:11:44.877Z,6.30
2022-12-27T20:14:14.700Z,6.30
2022-12-27T20:16:43.061Z,6.30
2022-12-27T20:19:15.792Z,6.40
2022-12-27T20:21:44.194Z,6.40
2022-12-27T20:24:15.144Z,6.40
2022-12-27T20:26:44.427Z,6.40
2022-12-27T20:29:15.094Z,6.40
2022-12-27T20:31:46.177Z,6.50
2022-12-27T20:34:15.488Z,6.50
2022-12-27T20:36:44.728Z,6.50
2022-12-27T20:39:14.449Z,6.60
2022-12-27T20:41:42.843Z,6.60
2022-12-27T20:44:11.216Z,6.50
2022-12-27T20:46:41.315Z,6.50
2022-12-27T20:49:10.056Z,6.50
2022-12-27T20:51:38.554Z,6.60
2022-12-27T20:54:06.929Z,6.60
2022-12-27T20:56:36.865Z,6.70
2022-12-27T20:59:05.308Z,6.70
2022-12-27T21:01:33.699Z,6.80
2022-12-27T21:04:02.163Z,6.80
2022-12-27T21:06:30.862Z,6.90
2022-12-27T21:08:59.685Z,6.80
2022-12-27T21:11:30.426Z,6.90
2022-12-27T21:14:02.101Z,6.90
2022-12-27T21:16:33.500Z,6.90
2022-12-27T21:19:04.810Z,6.90
2022-12-27T21:21:35.282Z,6.90
2022-12-27T21:24:03.738Z,6.90
2022-12-27T21:26:35.481Z,7.00
2022-12-27T21:29:07.885Z,7.00
2022-12-27T21:31:37.108Z,7.00
2022-12-27T21:34:07.090Z,7.00
2022-12-27T21:36:36.120Z,7.00
2022-12-27T21:39:05.104Z,7.00
2022-12-27T21:41:35.130Z,7.00
2022-12-27T21:44:05.034Z,7.00
2022-12-27T21:46:35.038Z,7.10
2022-12-27T21:49:04.929Z,7.10
2022-12-27T21:51:34.179Z,7.10
2022-12-27T21:54:02.996Z,7.10
2022-12-27T21:56:31.773Z,7.10
2022-12-27T21:59:01.861Z,7.10
2022-12-27T22:01:50.792Z,7.00
2022-12-27T22:04:21.587Z,7.00
2022-12-27T22:06:50.590Z,7.00
2022-12-27T22:09:19.844Z,7.00
2022-12-27T22:11:48.353Z,7.10
2022-12-27T22:14:18.722Z,7.00
2022-12-27T22:16:51.587Z,7.00
2022-12-27T22:19:20.095Z,7.00
2022-12-27T22:21:48.439Z,7.00
2022-12-27T22:24:19.662Z,7.00
2022-12-27T22:26:50.442Z,7.00
2022-12-27T22:29:18.973Z,7.00
2022-12-27T22:31:47.301Z,7.00
2022-12-27T22:34:17.228Z,7.00
2022-12-27T22:36:45.505Z,7.00
2022-12-27T22:39:15.311Z,7.00
2022-12-27T22:41:43.611Z,7.00
2022-12-27T22:44:13.879Z,7.00
2022-12-27T22:49:33.039Z,7.00
2022-12-27T22:52:01.312Z,7.00
2022-12-27T22:55:05.796Z,7.00
2022-12-27T22:57:18.218Z,7.00
2022-12-27T22:59:49.064Z,7.00
2022-12-27T23:02:17.533Z,7.00
2022-12-27T23:04:47.645Z,7.00
2022-12-27T23:07:20.022Z,7.00
2022-12-27T23:09:48.804Z,7.00
2022-12-27T23:12:17.069Z,6.90
2022-12-27T23:14:45.474Z,7.00
2022-12-27T23:17:14.156Z,7.00
2022-12-27T23:19:42.510Z,7.00
2022-12-27T23:22:12.355Z,7.00
2022-12-27T23:24:40.667Z,7.00
2022-12-27T23:27:08.920Z,7.10
2022-12-27T23:29:37.297Z,7.10
2022-12-27T23:32:06.211Z,7.10
2022-12-27T23:34:34.443Z,7.10
2022-12-27T23:37:03.011Z,7.20
2022-12-27T23:39:32.644Z,7.20
2022-12-27T23:42:00.807Z,7.10
2022-12-27T23:44:33.372Z,7.20
2022-12-27T23:47:06.395Z,7.20
2022-12-27T23:49:34.939Z,7.20
2022-12-27T23:52:06.480Z,7.20
2022-12-27T23:54:36.298Z,7.20
2022-12-27T23:57:19.829Z,7.30
2022-12-27T23:59:50.173Z,7.30
